Aviation Digital Data Service (ADDS)

Output produced by METARs form (0620 UTC 19 March 2019)
found at http://www.aviationweather.gov/metar/data/
 
METAR text: LEPA 190600Z VRB02KT 9999 FEW020CB SCT022 OVC040 08/08 Q1022 TEMPO 4000 SHRA
Conditions at: LEPA (PALMA DE MALLORC, ES) observed 0600 UTC 19 March 2019
Temperature: 8.0°C (46°F)
Dewpoint: 8.0°C (46°F) [RH = 100%]
Pressure (altimeter): 30.18 inches Hg (1022.0 mb)
Winds: variable direction winds at 2 MPH (2 knots; 1.0 m/s)
Visibility: 6 or more miles (10+ km)
Ceiling: 4000 feet AGL
Clouds: few clouds at 2000 feet AGL
scattered clouds at 2200 feet AGL
overcast cloud deck at 4000 feet AGL
Weather: no significant weather observed at this time

METAR text: LEPA 190530Z 00000KT 9999 FEW018 BKN030 08/08 Q1022 NOSIG
Conditions at: LEPA (PALMA DE MALLORC, ES) observed 0530 UTC 19 March 2019
Temperature: 8.0°C (46°F)
Dewpoint: 8.0°C (46°F) [RH = 100%]
Pressure (altimeter): 30.18 inches Hg (1022.0 mb)
Winds: calm
Visibility: 6 or more miles (10+ km)
Ceiling: 3000 feet AGL
Clouds: few clouds at 1800 feet AGL
broken clouds at 3000 feet AGL
Weather: no significant weather observed at this time

METAR text: LEPA 190500Z 00000KT 9999 FEW018 BKN030 08/08 Q1022 NOSIG
Conditions at: LEPA (PALMA DE MALLORC, ES) observed 0500 UTC 19 March 2019
Temperature: 8.0°C (46°F)
Dewpoint: 8.0°C (46°F) [RH = 100%]
Pressure (altimeter): 30.18 inches Hg (1022.0 mb)
Winds: calm
Visibility: 6 or more miles (10+ km)
Ceiling: 3000 feet AGL
Clouds: few clouds at 1800 feet AGL
broken clouds at 3000 feet AGL
Weather: no significant weather observed at this time

METAR text: LEPA 190430Z 00000KT 9999 FEW018 BKN030 08/08 Q1022 NOSIG
Conditions at: LEPA (PALMA DE MALLORC, ES) observed 0430 UTC 19 March 2019
Temperature: 8.0°C (46°F)
Dewpoint: 8.0°C (46°F) [RH = 100%]
Pressure (altimeter): 30.18 inches Hg (1022.0 mb)
Winds: calm
Visibility: 6 or more miles (10+ km)
Ceiling: 3000 feet AGL
Clouds: few clouds at 1800 feet AGL
broken clouds at 3000 feet AGL
Weather: no significant weather observed at this time

METAR text: LEPA 190400Z 00000KT 9999 FEW018 BKN030 07/07 Q1022 NOSIG
Conditions at: LEPA (PALMA DE MALLORC, ES) observed 0400 UTC 19 March 2019
Temperature: 7.0°C (45°F)
Dewpoint: 7.0°C (45°F) [RH = 100%]
Pressure (altimeter): 30.18 inches Hg (1022.0 mb)
Winds: calm
Visibility: 6 or more miles (10+ km)
Ceiling: 3000 feet AGL
Clouds: few clouds at 1800 feet AGL
broken clouds at 3000 feet AGL
Weather: no significant weather observed at this time

METAR text: LEPA 190330Z 00000KT 9999 FEW018 BKN030 07/07 Q1022 NOSIG
Conditions at: LEPA (PALMA DE MALLORC, ES) observed 0330 UTC 19 March 2019
Temperature: 7.0°C (45°F)
Dewpoint: 7.0°C (45°F) [RH = 100%]
Pressure (altimeter): 30.18 inches Hg (1022.0 mb)
Winds: calm
Visibility: 6 or more miles (10+ km)
Ceiling: 3000 feet AGL
Clouds: few clouds at 1800 feet AGL
broken clouds at 3000 feet AGL
Weather: no significant weather observed at this time

METAR text: LEPA 190300Z 00000KT 9999 FEW018 BKN030 07/07 Q1022 NOSIG
Conditions at: LEPA (PALMA DE MALLORC, ES) observed 0300 UTC 19 March 2019
Temperature: 7.0°C (45°F)
Dewpoint: 7.0°C (45°F) [RH = 100%]
Pressure (altimeter): 30.18 inches Hg (1022.0 mb)
Winds: calm
Visibility: 6 or more miles (10+ km)
Ceiling: 3000 feet AGL
Clouds: few clouds at 1800 feet AGL
broken clouds at 3000 feet AGL
Weather: no significant weather observed at this time

METAR text: LEPA 190230Z VRB02KT 9999 FEW018 BKN030 07/07 Q1022 NOSIG
Conditions at: LEPA (PALMA DE MALLORC, ES) observed 0230 UTC 19 March 2019
Temperature: 7.0°C (45°F)
Dewpoint: 7.0°C (45°F) [RH = 100%]
Pressure (altimeter): 30.18 inches Hg (1022.0 mb)
Winds: variable direction winds at 2 MPH (2 knots; 1.0 m/s)
Visibility: 6 or more miles (10+ km)
Ceiling: 3000 feet AGL
Clouds: few clouds at 1800 feet AGL
broken clouds at 3000 feet AGL
Weather: no significant weather observed at this time

METAR text: LEPA 190200Z 02003KT 9999 FEW018 BKN030 07/07 Q1023 NOSIG
Conditions at: LEPA (PALMA DE MALLORC, ES) observed 0200 UTC 19 March 2019
Temperature: 7.0°C (45°F)
Dewpoint: 7.0°C (45°F) [RH = 100%]
Pressure (altimeter): 30.21 inches Hg (1023.0 mb)
Winds: from the NNE (20 degrees) at 3 MPH (3 knots; 1.5 m/s)
Visibility: 6 or more miles (10+ km)
Ceiling: 3000 feet AGL
Clouds: few clouds at 1800 feet AGL
broken clouds at 3000 feet AGL
Weather: no significant weather observed at this time

METAR text: LEPA 190130Z 02002KT 9999 FEW018 BKN030 07/07 Q1023 NOSIG
Conditions at: LEPA (PALMA DE MALLORC, ES) observed 0130 UTC 19 March 2019
Temperature: 7.0°C (45°F)
Dewpoint: 7.0°C (45°F) [RH = 100%]
Pressure (altimeter): 30.21 inches Hg (1023.0 mb)
Winds: from the NNE (20 degrees) at 2 MPH (2 knots; 1.0 m/s)
Visibility: 6 or more miles (10+ km)
Ceiling: 3000 feet AGL
Clouds: few clouds at 1800 feet AGL
broken clouds at 3000 feet AGL
Weather: no significant weather observed at this time

METAR text: LEPA 190100Z VRB03KT 9999 FEW018 BKN030 07/07 Q1023 NOSIG
Conditions at: LEPA (PALMA DE MALLORC, ES) observed 0100 UTC 19 March 2019
Temperature: 7.0°C (45°F)
Dewpoint: 7.0°C (45°F) [RH = 100%]
Pressure (altimeter): 30.21 inches Hg (1023.0 mb)
Winds: variable direction winds at 3 MPH (3 knots; 1.5 m/s)
Visibility: 6 or more miles (10+ km)
Ceiling: 3000 feet AGL
Clouds: few clouds at 1800 feet AGL
broken clouds at 3000 feet AGL
Weather: no significant weather observed at this time

METAR text: LEPA 190030Z 00000KT 9999 FEW018 BKN030 07/07 Q1024 NOSIG
Conditions at: LEPA (PALMA DE MALLORC, ES) observed 0030 UTC 19 March 2019
Temperature: 7.0°C (45°F)
Dewpoint: 7.0°C (45°F) [RH = 100%]
Pressure (altimeter): 30.24 inches Hg (1024.0 mb)
Winds: calm
Visibility: 6 or more miles (10+ km)
Ceiling: 3000 feet AGL
Clouds: few clouds at 1800 feet AGL
broken clouds at 3000 feet AGL
Weather: no significant weather observed at this time

METAR text: LEPA 190000Z 07003KT 9999 FEW018 BKN030 07/07 Q1024 NOSIG
Conditions at: LEPA (PALMA DE MALLORC, ES) observed 0000 UTC 19 March 2019
Temperature: 7.0°C (45°F)
Dewpoint: 7.0°C (45°F) [RH = 100%]
Pressure (altimeter): 30.24 inches Hg (1024.0 mb)
Winds: from the ENE (70 degrees) at 3 MPH (3 knots; 1.5 m/s)
Visibility: 6 or more miles (10+ km)
Ceiling: 3000 feet AGL
Clouds: few clouds at 1800 feet AGL
broken clouds at 3000 feet AGL
Weather: no significant weather observed at this time

METAR text: LEPA 182330Z VRB02KT 9999 FEW018 BKN030 07/07 Q1024 NOSIG
Conditions at: LEPA (PALMA DE MALLORC, ES) observed 2330 UTC 18 March 2019
Temperature: 7.0°C (45°F)
Dewpoint: 7.0°C (45°F) [RH = 100%]
Pressure (altimeter): 30.24 inches Hg (1024.0 mb)
Winds: variable direction winds at 2 MPH (2 knots; 1.0 m/s)
Visibility: 6 or more miles (10+ km)
Ceiling: 3000 feet AGL
Clouds: few clouds at 1800 feet AGL
broken clouds at 3000 feet AGL
Weather: no significant weather observed at this time

METAR text: LEPA 182300Z 04003KT 9999 FEW018 08/08 Q1024 NOSIG
Conditions at: LEPA (PALMA DE MALLORC, ES) observed 2300 UTC 18 March 2019
Temperature: 8.0°C (46°F)
Dewpoint: 8.0°C (46°F) [RH = 100%]
Pressure (altimeter): 30.24 inches Hg (1024.0 mb)
Winds: from the NE (40 degrees) at 3 MPH (3 knots; 1.5 m/s)
Visibility: 6 or more miles (10+ km)
Ceiling: at least 12,000 feet AGL
Clouds: few clouds at 1800 feet AGL
Weather: no significant weather observed at this time

METAR text: LEPA 182230Z 05003KT 340V080 9999 FEW018 08/08 Q1024 NOSIG
Conditions at: LEPA (PALMA DE MALLORC, ES) observed 2230 UTC 18 March 2019
Temperature: 8.0°C (46°F)
Dewpoint: 8.0°C (46°F) [RH = 100%]
Pressure (altimeter): 30.24 inches Hg (1024.0 mb)
Winds: from the NE (50 degrees) at 3 MPH (3 knots; 1.5 m/s)
Visibility: 6 or more miles (10+ km)
Ceiling: at least 12,000 feet AGL
Clouds: few clouds at 1800 feet AGL
Weather: no significant weather observed at this time

METAR text: LEPA 182200Z VRB02KT 9999 FEW018 08/08 Q1024 NOSIG
Conditions at: LEPA (PALMA DE MALLORC, ES) observed 2200 UTC 18 March 2019
Temperature: 8.0°C (46°F)
Dewpoint: 8.0°C (46°F) [RH = 100%]
Pressure (altimeter): 30.24 inches Hg (1024.0 mb)
Winds: variable direction winds at 2 MPH (2 knots; 1.0 m/s)
Visibility: 6 or more miles (10+ km)
Ceiling: at least 12,000 feet AGL
Clouds: few clouds at 1800 feet AGL
Weather: no significant weather observed at this time

METAR text: LEPA 182130Z 07004KT 9999 FEW018 08/08 Q1024 NOSIG
Conditions at: LEPA (PALMA DE MALLORC, ES) observed 2130 UTC 18 March 2019
Temperature: 8.0°C (46°F)
Dewpoint: 8.0°C (46°F) [RH = 100%]
Pressure (altimeter): 30.24 inches Hg (1024.0 mb)
Winds: from the ENE (70 degrees) at 5 MPH (4 knots; 2.1 m/s)
Visibility: 6 or more miles (10+ km)
Ceiling: at least 12,000 feet AGL
Clouds: few clouds at 1800 feet AGL
Weather: no significant weather observed at this time

METAR text: LEPA 182100Z 05002KT 9999 FEW018 09/09 Q1024 NOSIG
Conditions at: LEPA (PALMA DE MALLORC, ES) observed 2100 UTC 18 March 2019
Temperature: 9.0°C (48°F)
Dewpoint: 9.0°C (48°F) [RH = 100%]
Pressure (altimeter): 30.24 inches Hg (1024.0 mb)
Winds: from the NE (50 degrees) at 2 MPH (2 knots; 1.0 m/s)
Visibility: 6 or more miles (10+ km)
Ceiling: at least 12,000 feet AGL
Clouds: few clouds at 1800 feet AGL
Weather: no significant weather observed at this time

METAR text: LEPA 182030Z 35003KT 9999 FEW018 10/10 Q1024 NOSIG
Conditions at: LEPA (PALMA DE MALLORC, ES) observed 2030 UTC 18 March 2019
Temperature: 10.0°C (50°F)
Dewpoint: 10.0°C (50°F) [RH = 100%]
Pressure (altimeter): 30.24 inches Hg (1024.0 mb)
Winds: from the N (350 degrees) at 3 MPH (3 knots; 1.5 m/s)
Visibility: 6 or more miles (10+ km)
Ceiling: at least 12,000 feet AGL
Clouds: few clouds at 1800 feet AGL
Weather: no significant weather observed at this time

METAR text: LEPA 182000Z VRB02KT 9999 FEW018 10/10 Q1023 NOSIG
Conditions at: LEPA (PALMA DE MALLORC, ES) observed 2000 UTC 18 March 2019
Temperature: 10.0°C (50°F)
Dewpoint: 10.0°C (50°F) [RH = 100%]
Pressure (altimeter): 30.21 inches Hg (1023.0 mb)
Winds: variable direction winds at 2 MPH (2 knots; 1.0 m/s)
Visibility: 6 or more miles (10+ km)
Ceiling: at least 12,000 feet AGL
Clouds: few clouds at 1800 feet AGL
Weather: no significant weather observed at this time

METAR text: LEPA 181930Z 00000KT 9999 FEW018 SCT030 10/10 Q1023 NOSIG
Conditions at: LEPA (PALMA DE MALLORC, ES) observed 1930 UTC 18 March 2019
Temperature: 10.0°C (50°F)
Dewpoint: 10.0°C (50°F) [RH = 100%]
Pressure (altimeter): 30.21 inches Hg (1023.0 mb)
Winds: calm
Visibility: 6 or more miles (10+ km)
Ceiling: at least 12,000 feet AGL
Clouds: few clouds at 1800 feet AGL
scattered clouds at 3000 feet AGL
Weather: no significant weather observed at this time

METAR text: LEPA 181900Z VRB02KT 9999 FEW018 SCT035 BKN050 11/11 Q1023 NOSIG
Conditions at: LEPA (PALMA DE MALLORC, ES) observed 1900 UTC 18 March 2019
Temperature: 11.0°C (52°F)
Dewpoint: 11.0°C (52°F) [RH = 100%]
Pressure (altimeter): 30.21 inches Hg (1023.0 mb)
Winds: variable direction winds at 2 MPH (2 knots; 1.0 m/s)
Visibility: 6 or more miles (10+ km)
Ceiling: 5000 feet AGL
Clouds: few clouds at 1800 feet AGL
scattered clouds at 3500 feet AGL
broken clouds at 5000 feet AGL
Weather: no significant weather observed at this time

METAR text: LEPA 181830Z 07004KT 060V120 9999 FEW018 SCT035 BKN060 11/11 Q1023 NOSIG
Conditions at: LEPA (PALMA DE MALLORC, ES) observed 1830 UTC 18 March 2019
Temperature: 11.0°C (52°F)
Dewpoint: 11.0°C (52°F) [RH = 100%]
Pressure (altimeter): 30.21 inches Hg (1023.0 mb)
Winds: from the ENE (70 degrees) at 5 MPH (4 knots; 2.1 m/s)
Visibility: 6 or more miles (10+ km)
Ceiling: 6000 feet AGL
Clouds: few clouds at 1800 feet AGL
scattered clouds at 3500 feet AGL
broken clouds at 6000 feet AGL
Weather: no significant weather observed at this time

METAR text: LEPA 181800Z 08005KT 9999 FEW018 SCT039 BKN060 13/13 Q1023 NOSIG
Conditions at: LEPA (PALMA DE MALLORC, ES) observed 1800 UTC 18 March 2019
Temperature: 13.0°C (55°F)
Dewpoint: 13.0°C (55°F) [RH = 100%]
Pressure (altimeter): 30.21 inches Hg (1023.0 mb)
Winds: from the E (80 degrees) at 6 MPH (5 knots; 2.6 m/s)
Visibility: 6 or more miles (10+ km)
Ceiling: 6000 feet AGL
Clouds: few clouds at 1800 feet AGL
scattered clouds at 3900 feet AGL
broken clouds at 6000 feet AGL
Weather: no significant weather observed at this time

METAR text: LEPA 181730Z 06008KT 9999 FEW018 BKN036 13/13 Q1023 NOSIG
Conditions at: LEPA (PALMA DE MALLORC, ES) observed 1730 UTC 18 March 2019
Temperature: 13.0°C (55°F)
Dewpoint: 13.0°C (55°F) [RH = 100%]
Pressure (altimeter): 30.21 inches Hg (1023.0 mb)
Winds: from the ENE (60 degrees) at 9 MPH (8 knots; 4.1 m/s)
Visibility: 6 or more miles (10+ km)
Ceiling: 3600 feet AGL
Clouds: few clouds at 1800 feet AGL
broken clouds at 3600 feet AGL
Weather: no significant weather observed at this time

METAR text: LEPA 181700Z 08006KT 9999 FEW018 SCT034 13/13 Q1022 RERA NOSIG
Conditions at: LEPA (PALMA DE MALLORC, ES) observed 1700 UTC 18 March 2019
Temperature: 13.0°C (55°F)
Dewpoint: 13.0°C (55°F) [RH = 100%]
Pressure (altimeter): 30.18 inches Hg (1022.0 mb)
Winds: from the E (80 degrees) at 7 MPH (6 knots; 3.1 m/s)
Visibility: 6 or more miles (10+ km)
Ceiling: at least 12,000 feet AGL
Clouds: few clouds at 1800 feet AGL
scattered clouds at 3400 feet AGL
Weather: no significant weather observed at this time

METAR text: LEPA 181650Z 07007KT 9999 FEW018 BKN045 13/12 Q1022 NOSIG
Conditions at: LEPA (PALMA DE MALLORC, ES) observed 1650 UTC 18 March 2019
Temperature: 13.0°C (55°F)
Dewpoint: 12.0°C (54°F) [RH = 94%]
Pressure (altimeter): 30.18 inches Hg (1022.0 mb)
Winds: from the ENE (70 degrees) at 8 MPH (7 knots; 3.6 m/s)
Visibility: 6 or more miles (10+ km)
Ceiling: 4500 feet AGL
Clouds: few clouds at 1800 feet AGL
broken clouds at 4500 feet AGL
Weather: no significant weather observed at this time

METAR text: LEPA 181630Z 08005KT 050V130 9999 RA FEW020 BKN040 14/12 Q1022 NOSIG
Conditions at: LEPA (PALMA DE MALLORC, ES) observed 1630 UTC 18 March 2019
Temperature: 14.0°C (57°F)
Dewpoint: 12.0°C (54°F) [RH = 88%]
Pressure (altimeter): 30.18 inches Hg (1022.0 mb)
Winds: from the E (80 degrees) at 6 MPH (5 knots; 2.6 m/s)
Visibility: 6 or more miles (10+ km)
Ceiling: 4000 feet AGL
Clouds: few clouds at 2000 feet AGL
broken clouds at 4000 feet AGL
Weather: RA  (moderate rain)

METAR text: LEPA 181600Z 08008KT 9999 FEW020 BKN040 14/10 Q1022 NOSIG
Conditions at: LEPA (PALMA DE MALLORC, ES) observed 1600 UTC 18 March 2019
Temperature: 14.0°C (57°F)
Dewpoint: 10.0°C (50°F) [RH = 77%]
Pressure (altimeter): 30.18 inches Hg (1022.0 mb)
Winds: from the E (80 degrees) at 9 MPH (8 knots; 4.1 m/s)
Visibility: 6 or more miles (10+ km)
Ceiling: 4000 feet AGL
Clouds: few clouds at 2000 feet AGL
broken clouds at 4000 feet AGL
Weather: no significant weather observed at this time

METAR text: LEPA 181530Z 01003KT 320V080 9999 FEW020 SCT035 BKN057 15/08 Q1022 NOSIG
Conditions at: LEPA (PALMA DE MALLORC, ES) observed 1530 UTC 18 March 2019
Temperature: 15.0°C (59°F)
Dewpoint: 8.0°C (46°F) [RH = 63%]
Pressure (altimeter): 30.18 inches Hg (1022.0 mb)
Winds: from the N (10 degrees) at 3 MPH (3 knots; 1.5 m/s)
Visibility: 6 or more miles (10+ km)
Ceiling: 5700 feet AGL
Clouds: few clouds at 2000 feet AGL
scattered clouds at 3500 feet AGL
broken clouds at 5700 feet AGL
Weather: no significant weather observed at this time

METAR text: LEPA 181500Z 15001KT 9999 FEW020 SCT031 BKN057 16/10 Q1022 NOSIG
Conditions at: LEPA (PALMA DE MALLORC, ES) observed 1500 UTC 18 March 2019
Temperature: 16.0°C (61°F)
Dewpoint: 10.0°C (50°F) [RH = 68%]
Pressure (altimeter): 30.18 inches Hg (1022.0 mb)
Winds: from the SSE (150 degrees) at 1 MPH (1 knots; 0.5 m/s)
Visibility: 6 or more miles (10+ km)
Ceiling: 5700 feet AGL
Clouds: few clouds at 2000 feet AGL
scattered clouds at 3100 feet AGL
broken clouds at 5700 feet AGL
Weather: no significant weather observed at this time

METAR text: LEPA 181430Z 09004KT 060V200 9999 FEW025 BKN042 15/10 Q1022 NOSIG
Conditions at: LEPA (PALMA DE MALLORC, ES) observed 1430 UTC 18 March 2019
Temperature: 15.0°C (59°F)
Dewpoint: 10.0°C (50°F) [RH = 72%]
Pressure (altimeter): 30.18 inches Hg (1022.0 mb)
Winds: from the E (90 degrees) at 5 MPH (4 knots; 2.1 m/s)
Visibility: 6 or more miles (10+ km)
Ceiling: 4200 feet AGL
Clouds: few clouds at 2500 feet AGL
broken clouds at 4200 feet AGL
Weather: no significant weather observed at this time

METAR text: LEPA 181400Z 08004KT 030V130 9999 FEW025 BKN042 15/09 Q1022 NOSIG
Conditions at: LEPA (PALMA DE MALLORC, ES) observed 1400 UTC 18 March 2019
Temperature: 15.0°C (59°F)
Dewpoint: 9.0°C (48°F) [RH = 67%]
Pressure (altimeter): 30.18 inches Hg (1022.0 mb)
Winds: from the E (80 degrees) at 5 MPH (4 knots; 2.1 m/s)
Visibility: 6 or more miles (10+ km)
Ceiling: 4200 feet AGL
Clouds: few clouds at 2500 feet AGL
broken clouds at 4200 feet AGL
Weather: no significant weather observed at this time

METAR text: LEPA 181330Z 08004KT 050V110 9999 FEW025 BKN045 15/09 Q1023 NOSIG
Conditions at: LEPA (PALMA DE MALLORC, ES) observed 1330 UTC 18 March 2019
Temperature: 15.0°C (59°F)
Dewpoint: 9.0°C (48°F) [RH = 67%]
Pressure (altimeter): 30.21 inches Hg (1023.0 mb)
Winds: from the E (80 degrees) at 5 MPH (4 knots; 2.1 m/s)
Visibility: 6 or more miles (10+ km)
Ceiling: 4500 feet AGL
Clouds: few clouds at 2500 feet AGL
broken clouds at 4500 feet AGL
Weather: no significant weather observed at this time

METAR text: LEPA 181300Z 07005KT 030V110 9999 FEW025 BKN047 15/09 Q1023 NOSIG
Conditions at: LEPA (PALMA DE MALLORC, ES) observed 1300 UTC 18 March 2019
Temperature: 15.0°C (59°F)
Dewpoint: 9.0°C (48°F) [RH = 67%]
Pressure (altimeter): 30.21 inches Hg (1023.0 mb)
Winds: from the ENE (70 degrees) at 6 MPH (5 knots; 2.6 m/s)
Visibility: 6 or more miles (10+ km)
Ceiling: 4700 feet AGL
Clouds: few clouds at 2500 feet AGL
broken clouds at 4700 feet AGL
Weather: no significant weather observed at this time

METAR text: LEPA 181230Z 06008KT 9999 FEW025 BKN050 15/09 Q1023 NOSIG
Conditions at: LEPA (PALMA DE MALLORC, ES) observed 1230 UTC 18 March 2019
Temperature: 15.0°C (59°F)
Dewpoint: 9.0°C (48°F) [RH = 67%]
Pressure (altimeter): 30.21 inches Hg (1023.0 mb)
Winds: from the ENE (60 degrees) at 9 MPH (8 knots; 4.1 m/s)
Visibility: 6 or more miles (10+ km)
Ceiling: 5000 feet AGL
Clouds: few clouds at 2500 feet AGL
broken clouds at 5000 feet AGL
Weather: no significant weather observed at this time

METAR text: LEPA 181200Z 08005KT 050V130 9999 FEW025 BKN050 15/08 Q1023 NOSIG
Conditions at: LEPA (PALMA DE MALLORC, ES) observed 1200 UTC 18 March 2019
Temperature: 15.0°C (59°F)
Dewpoint: 8.0°C (46°F) [RH = 63%]
Pressure (altimeter): 30.21 inches Hg (1023.0 mb)
Winds: from the E (80 degrees) at 6 MPH (5 knots; 2.6 m/s)
Visibility: 6 or more miles (10+ km)
Ceiling: 5000 feet AGL
Clouds: few clouds at 2500 feet AGL
broken clouds at 5000 feet AGL
Weather: no significant weather observed at this time

METAR text: LEPA 181130Z 07006KT 9999 FEW025 BKN050 15/08 Q1023 NOSIG
Conditions at: LEPA (PALMA DE MALLORC, ES) observed 1130 UTC 18 March 2019
Temperature: 15.0°C (59°F)
Dewpoint: 8.0°C (46°F) [RH = 63%]
Pressure (altimeter): 30.21 inches Hg (1023.0 mb)
Winds: from the ENE (70 degrees) at 7 MPH (6 knots; 3.1 m/s)
Visibility: 6 or more miles (10+ km)
Ceiling: 5000 feet AGL
Clouds: few clouds at 2500 feet AGL
broken clouds at 5000 feet AGL
Weather: no significant weather observed at this time

METAR text: LEPA 181100Z 07006KT 9999 FEW025 BKN050 15/08 Q1023 NOSIG
Conditions at: LEPA (PALMA DE MALLORC, ES) observed 1100 UTC 18 March 2019
Temperature: 15.0°C (59°F)
Dewpoint: 8.0°C (46°F) [RH = 63%]
Pressure (altimeter): 30.21 inches Hg (1023.0 mb)
Winds: from the ENE (70 degrees) at 7 MPH (6 knots; 3.1 m/s)
Visibility: 6 or more miles (10+ km)
Ceiling: 5000 feet AGL
Clouds: few clouds at 2500 feet AGL
broken clouds at 5000 feet AGL
Weather: no significant weather observed at this time

METAR text: LEPA 181030Z 07010KT 9999 FEW025 BKN055 15/08 Q1023 NOSIG
Conditions at: LEPA (PALMA DE MALLORC, ES) observed 1030 UTC 18 March 2019
Temperature: 15.0°C (59°F)
Dewpoint: 8.0°C (46°F) [RH = 63%]
Pressure (altimeter): 30.21 inches Hg (1023.0 mb)
Winds: from the ENE (70 degrees) at 12 MPH (10 knots; 5.1 m/s)
Visibility: 6 or more miles (10+ km)
Ceiling: 5500 feet AGL
Clouds: few clouds at 2500 feet AGL
broken clouds at 5500 feet AGL
Weather: no significant weather observed at this time

METAR text: LEPA 181000Z 07011KT 9999 FEW025 SCT059 15/08 Q1023 NOSIG
Conditions at: LEPA (PALMA DE MALLORC, ES) observed 1000 UTC 18 March 2019
Temperature: 15.0°C (59°F)
Dewpoint: 8.0°C (46°F) [RH = 63%]
Pressure (altimeter): 30.21 inches Hg (1023.0 mb)
Winds: from the ENE (70 degrees) at 13 MPH (11 knots; 5.7 m/s)
Visibility: 6 or more miles (10+ km)
Ceiling: at least 12,000 feet AGL
Clouds: few clouds at 2500 feet AGL
scattered clouds at 5900 feet AGL
Weather: no significant weather observed at this time

METAR text: LEPA 180930Z 06013KT 9999 FEW040 15/07 Q1023 NOSIG
Conditions at: LEPA (PALMA DE MALLORC, ES) observed 0930 UTC 18 March 2019
Temperature: 15.0°C (59°F)
Dewpoint: 7.0°C (45°F) [RH = 59%]
Pressure (altimeter): 30.21 inches Hg (1023.0 mb)
Winds: from the ENE (60 degrees) at 15 MPH (13 knots; 6.7 m/s)
Visibility: 6 or more miles (10+ km)
Ceiling: at least 12,000 feet AGL
Clouds: few clouds at 4000 feet AGL
Weather: no significant weather observed at this time

METAR text: LEPA 180900Z 06013KT 020V080 CAVOK 15/08 Q1023 NOSIG
Conditions at: LEPA (PALMA DE MALLORC, ES) observed 0900 UTC 18 March 2019
Temperature: 15.0°C (59°F)
Dewpoint: 8.0°C (46°F) [RH = 63%]
Pressure (altimeter): 30.21 inches Hg (1023.0 mb)
Winds: from the ENE (60 degrees) at 15 MPH (13 knots; 6.7 m/s)
Visibility: 6 or more miles (10+ km)
Ceiling: ceiling and visibility are OK
Clouds: unknown
Weather: no significant weather observed at this time

METAR text: LEPA 180830Z 06009KT 030V110 9999 FEW030 15/07 Q1022 NOSIG
Conditions at: LEPA (PALMA DE MALLORC, ES) observed 0830 UTC 18 March 2019
Temperature: 15.0°C (59°F)
Dewpoint: 7.0°C (45°F) [RH = 59%]
Pressure (altimeter): 30.18 inches Hg (1022.0 mb)
Winds: from the ENE (60 degrees) at 10 MPH (9 knots; 4.6 m/s)
Visibility: 6 or more miles (10+ km)
Ceiling: at least 12,000 feet AGL
Clouds: few clouds at 3000 feet AGL
Weather: no significant weather observed at this time

METAR text: LEPA 180800Z 05007KT 010V080 CAVOK 14/07 Q1022 NOSIG
Conditions at: LEPA (PALMA DE MALLORC, ES) observed 0800 UTC 18 March 2019
Temperature: 14.0°C (57°F)
Dewpoint: 7.0°C (45°F) [RH = 63%]
Pressure (altimeter): 30.18 inches Hg (1022.0 mb)
Winds: from the NE (50 degrees) at 8 MPH (7 knots; 3.6 m/s)
Visibility: 6 or more miles (10+ km)
Ceiling: ceiling and visibility are OK
Clouds: unknown
Weather: no significant weather observed at this time

METAR text: LEPA 180730Z 04005KT 010V070 CAVOK 13/07 Q1022 NOSIG
Conditions at: LEPA (PALMA DE MALLORC, ES) observed 0730 UTC 18 March 2019
Temperature: 13.0°C (55°F)
Dewpoint: 7.0°C (45°F) [RH = 67%]
Pressure (altimeter): 30.18 inches Hg (1022.0 mb)
Winds: from the NE (40 degrees) at 6 MPH (5 knots; 2.6 m/s)
Visibility: 6 or more miles (10+ km)
Ceiling: ceiling and visibility are OK
Clouds: unknown
Weather: no significant weather observed at this time

METAR text: LEPA 180700Z 05007KT CAVOK 13/07 Q1021 NOSIG
Conditions at: LEPA (PALMA DE MALLORC, ES) observed 0700 UTC 18 March 2019
Temperature: 13.0°C (55°F)
Dewpoint: 7.0°C (45°F) [RH = 67%]
Pressure (altimeter): 30.15 inches Hg (1021.0 mb)
Winds: from the NE (50 degrees) at 8 MPH (7 knots; 3.6 m/s)
Visibility: 6 or more miles (10+ km)
Ceiling: ceiling and visibility are OK
Clouds: unknown
Weather: no significant weather observed at this time

METAR text: LEPA 180630Z 05007KT CAVOK 12/07 Q1021 NOSIG
Conditions at: LEPA (PALMA DE MALLORC, ES) observed 0630 UTC 18 March 2019
Temperature: 12.0°C (54°F)
Dewpoint: 7.0°C (45°F) [RH = 71%]
Pressure (altimeter): 30.15 inches Hg (1021.0 mb)
Winds: from the NE (50 degrees) at 8 MPH (7 knots; 3.6 m/s)
Visibility: 6 or more miles (10+ km)
Ceiling: ceiling and visibility are OK
Clouds: unknown
Weather: no significant weather observed at this time

METAR text: LEPA 180600Z 06008KT CAVOK 11/07 Q1021 NOSIG
Conditions at: LEPA (PALMA DE MALLORC, ES) observed 0600 UTC 18 March 2019
Temperature: 11.0°C (52°F)
Dewpoint: 7.0°C (45°F) [RH = 76%]
Pressure (altimeter): 30.15 inches Hg (1021.0 mb)
Winds: from the ENE (60 degrees) at 9 MPH (8 knots; 4.1 m/s)
Visibility: 6 or more miles (10+ km)
Ceiling: ceiling and visibility are OK
Clouds: unknown
Weather: no significant weather observed at this time

METAR text: LEPA 180530Z 07010KT 9999 FEW025 12/08 Q1020 NOSIG
Conditions at: LEPA (PALMA DE MALLORC, ES) observed 0530 UTC 18 March 2019
Temperature: 12.0°C (54°F)
Dewpoint: 8.0°C (46°F) [RH = 76%]
Pressure (altimeter): 30.12 inches Hg (1020.0 mb)
Winds: from the ENE (70 degrees) at 12 MPH (10 knots; 5.1 m/s)
Visibility: 6 or more miles (10+ km)
Ceiling: at least 12,000 feet AGL
Clouds: few clouds at 2500 feet AGL
Weather: no significant weather observed at this time

METAR text: LEPA 180500Z 06008KT 030V090 9999 FEW025 13/08 Q1020 NOSIG
Conditions at: LEPA (PALMA DE MALLORC, ES) observed 0500 UTC 18 March 2019
Temperature: 13.0°C (55°F)
Dewpoint: 8.0°C (46°F) [RH = 72%]
Pressure (altimeter): 30.12 inches Hg (1020.0 mb)
Winds: from the ENE (60 degrees) at 9 MPH (8 knots; 4.1 m/s)
Visibility: 6 or more miles (10+ km)
Ceiling: at least 12,000 feet AGL
Clouds: few clouds at 2500 feet AGL
Weather: no significant weather observed at this time

METAR text: LEPA 180430Z 06012KT 9999 FEW025 13/08 Q1019 NOSIG
Conditions at: LEPA (PALMA DE MALLORC, ES) observed 0430 UTC 18 March 2019
Temperature: 13.0°C (55°F)
Dewpoint: 8.0°C (46°F) [RH = 72%]
Pressure (altimeter): 30.09 inches Hg (1019.0 mb)
Winds: from the ENE (60 degrees) at 14 MPH (12 knots; 6.2 m/s)
Visibility: 6 or more miles (10+ km)
Ceiling: at least 12,000 feet AGL
Clouds: few clouds at 2500 feet AGL
Weather: no significant weather observed at this time

METAR text: LEPA 180400Z 06013KT 9999 FEW025 13/08 Q1019 NOSIG
Conditions at: LEPA (PALMA DE MALLORC, ES) observed 0400 UTC 18 March 2019
Temperature: 13.0°C (55°F)
Dewpoint: 8.0°C (46°F) [RH = 72%]
Pressure (altimeter): 30.09 inches Hg (1019.0 mb)
Winds: from the ENE (60 degrees) at 15 MPH (13 knots; 6.7 m/s)
Visibility: 6 or more miles (10+ km)
Ceiling: at least 12,000 feet AGL
Clouds: few clouds at 2500 feet AGL
Weather: no significant weather observed at this time

METAR text: LEPA 180330Z 06013KT 9999 FEW025 13/08 Q1019 NOSIG
Conditions at: LEPA (PALMA DE MALLORC, ES) observed 0330 UTC 18 March 2019
Temperature: 13.0°C (55°F)
Dewpoint: 8.0°C (46°F) [RH = 72%]
Pressure (altimeter): 30.09 inches Hg (1019.0 mb)
Winds: from the ENE (60 degrees) at 15 MPH (13 knots; 6.7 m/s)
Visibility: 6 or more miles (10+ km)
Ceiling: at least 12,000 feet AGL
Clouds: few clouds at 2500 feet AGL
Weather: no significant weather observed at this time

METAR text: LEPA 180300Z 06015KT 9999 FEW025 14/08 Q1019 NOSIG
Conditions at: LEPA (PALMA DE MALLORC, ES) observed 0300 UTC 18 March 2019
Temperature: 14.0°C (57°F)
Dewpoint: 8.0°C (46°F) [RH = 67%]
Pressure (altimeter): 30.09 inches Hg (1019.0 mb)
Winds: from the ENE (60 degrees) at 17 MPH (15 knots; 7.7 m/s)
Visibility: 6 or more miles (10+ km)
Ceiling: at least 12,000 feet AGL
Clouds: few clouds at 2500 feet AGL
Weather: no significant weather observed at this time

METAR text: LEPA 180230Z 06013KT 9999 FEW025 13/08 Q1019 NOSIG
Conditions at: LEPA (PALMA DE MALLORC, ES) observed 0230 UTC 18 March 2019
Temperature: 13.0°C (55°F)
Dewpoint: 8.0°C (46°F) [RH = 72%]
Pressure (altimeter): 30.09 inches Hg (1019.0 mb)
Winds: from the ENE (60 degrees) at 15 MPH (13 knots; 6.7 m/s)
Visibility: 6 or more miles (10+ km)
Ceiling: at least 12,000 feet AGL
Clouds: few clouds at 2500 feet AGL
Weather: no significant weather observed at this time

METAR text: LEPA 180200Z 07016KT 9999 FEW025 14/08 Q1019 NOSIG
Conditions at: LEPA (PALMA DE MALLORC, ES) observed 0200 UTC 18 March 2019
Temperature: 14.0°C (57°F)
Dewpoint: 8.0°C (46°F) [RH = 67%]
Pressure (altimeter): 30.09 inches Hg (1019.0 mb)
Winds: from the ENE (70 degrees) at 18 MPH (16 knots; 8.2 m/s)
Visibility: 6 or more miles (10+ km)
Ceiling: at least 12,000 feet AGL
Clouds: few clouds at 2500 feet AGL
Weather: no significant weather observed at this time

METAR text: LEPA 180130Z 07017G27KT 9999 FEW025 14/09 Q1019 NOSIG
Conditions at: LEPA (PALMA DE MALLORC, ES) observed 0130 UTC 18 March 2019
Temperature: 14.0°C (57°F)
Dewpoint: 9.0°C (48°F) [RH = 72%]
Pressure (altimeter): 30.09 inches Hg (1019.0 mb)
Winds: from the ENE (70 degrees) at 20 MPH (17 knots; 8.7 m/s)
gusting to 31 MPH (27 knots; 13.9 m/s)
Visibility: 6 or more miles (10+ km)
Ceiling: at least 12,000 feet AGL
Clouds: few clouds at 2500 feet AGL
Weather: no significant weather observed at this time

METAR text: LEPA 180100Z 06018KT 9999 FEW025 14/09 Q1019 NOSIG
Conditions at: LEPA (PALMA DE MALLORC, ES) observed 0100 UTC 18 March 2019
Temperature: 14.0°C (57°F)
Dewpoint: 9.0°C (48°F) [RH = 72%]
Pressure (altimeter): 30.09 inches Hg (1019.0 mb)
Winds: from the ENE (60 degrees) at 21 MPH (18 knots; 9.3 m/s)
Visibility: 6 or more miles (10+ km)
Ceiling: at least 12,000 feet AGL
Clouds: few clouds at 2500 feet AGL
Weather: no significant weather observed at this time

METAR text: LEPA 180030Z 06018G28KT CAVOK 14/09 Q1019 NOSIG
Conditions at: LEPA (PALMA DE MALLORC, ES) observed 0030 UTC 18 March 2019
Temperature: 14.0°C (57°F)
Dewpoint: 9.0°C (48°F) [RH = 72%]
Pressure (altimeter): 30.09 inches Hg (1019.0 mb)
Winds: from the ENE (60 degrees) at 21 MPH (18 knots; 9.3 m/s)
gusting to 32 MPH (28 knots; 14.4 m/s)
Visibility: 6 or more miles (10+ km)
Ceiling: ceiling and visibility are OK
Clouds: unknown
Weather: no significant weather observed at this time

METAR text: LEPA 180000Z 06018KT CAVOK 15/09 Q1018 NOSIG
Conditions at: LEPA (PALMA DE MALLORC, ES) observed 0000 UTC 18 March 2019
Temperature: 15.0°C (59°F)
Dewpoint: 9.0°C (48°F) [RH = 67%]
Pressure (altimeter): 30.06 inches Hg (1018.0 mb)
Winds: from the ENE (60 degrees) at 21 MPH (18 knots; 9.3 m/s)
Visibility: 6 or more miles (10+ km)
Ceiling: ceiling and visibility are OK
Clouds: unknown
Weather: no significant weather observed at this time

METAR text: LEPA 172330Z 06017G28KT CAVOK 15/09 Q1018 NOSIG
Conditions at: LEPA (PALMA DE MALLORC, ES) observed 2330 UTC 17 March 2019
Temperature: 15.0°C (59°F)
Dewpoint: 9.0°C (48°F) [RH = 67%]
Pressure (altimeter): 30.06 inches Hg (1018.0 mb)
Winds: from the ENE (60 degrees) at 20 MPH (17 knots; 8.7 m/s)
gusting to 32 MPH (28 knots; 14.4 m/s)
Visibility: 6 or more miles (10+ km)
Ceiling: ceiling and visibility are OK
Clouds: unknown
Weather: no significant weather observed at this time

METAR text: LEPA 172300Z 06014KT CAVOK 15/09 Q1018 NOSIG
Conditions at: LEPA (PALMA DE MALLORC, ES) observed 2300 UTC 17 March 2019
Temperature: 15.0°C (59°F)
Dewpoint: 9.0°C (48°F) [RH = 67%]
Pressure (altimeter): 30.06 inches Hg (1018.0 mb)
Winds: from the ENE (60 degrees) at 16 MPH (14 knots; 7.2 m/s)
Visibility: 6 or more miles (10+ km)
Ceiling: ceiling and visibility are OK
Clouds: unknown
Weather: no significant weather observed at this time

METAR text: LEPA 172230Z 06018KT CAVOK 15/10 Q1018 NOSIG
Conditions at: LEPA (PALMA DE MALLORC, ES) observed 2230 UTC 17 March 2019
Temperature: 15.0°C (59°F)
Dewpoint: 10.0°C (50°F) [RH = 72%]
Pressure (altimeter): 30.06 inches Hg (1018.0 mb)
Winds: from the ENE (60 degrees) at 21 MPH (18 knots; 9.3 m/s)
Visibility: 6 or more miles (10+ km)
Ceiling: ceiling and visibility are OK
Clouds: unknown
Weather: no significant weather observed at this time

METAR text: LEPA 172200Z 06014KT CAVOK 16/11 Q1017 NOSIG
Conditions at: LEPA (PALMA DE MALLORC, ES) observed 2200 UTC 17 March 2019
Temperature: 16.0°C (61°F)
Dewpoint: 11.0°C (52°F) [RH = 72%]
Pressure (altimeter): 30.03 inches Hg (1017.0 mb)
Winds: from the ENE (60 degrees) at 16 MPH (14 knots; 7.2 m/s)
Visibility: 6 or more miles (10+ km)
Ceiling: ceiling and visibility are OK
Clouds: unknown
Weather: no significant weather observed at this time

METAR text: LEPA 172130Z 06015KT CAVOK 16/11 Q1017 NOSIG
Conditions at: LEPA (PALMA DE MALLORC, ES) observed 2130 UTC 17 March 2019
Temperature: 16.0°C (61°F)
Dewpoint: 11.0°C (52°F) [RH = 72%]
Pressure (altimeter): 30.03 inches Hg (1017.0 mb)
Winds: from the ENE (60 degrees) at 17 MPH (15 knots; 7.7 m/s)
Visibility: 6 or more miles (10+ km)
Ceiling: ceiling and visibility are OK
Clouds: unknown
Weather: no significant weather observed at this time

METAR text: LEPA 172100Z 06011KT CAVOK 16/11 Q1017 NOSIG
Conditions at: LEPA (PALMA DE MALLORC, ES) observed 2100 UTC 17 March 2019
Temperature: 16.0°C (61°F)
Dewpoint: 11.0°C (52°F) [RH = 72%]
Pressure (altimeter): 30.03 inches Hg (1017.0 mb)
Winds: from the ENE (60 degrees) at 13 MPH (11 knots; 5.7 m/s)
Visibility: 6 or more miles (10+ km)
Ceiling: ceiling and visibility are OK
Clouds: unknown
Weather: no significant weather observed at this time

METAR text: LEPA 172030Z 05015KT CAVOK 15/11 Q1016 NOSIG
Conditions at: LEPA (PALMA DE MALLORC, ES) observed 2030 UTC 17 March 2019
Temperature: 15.0°C (59°F)
Dewpoint: 11.0°C (52°F) [RH = 77%]
Pressure (altimeter): 30.00 inches Hg (1016.0 mb)
Winds: from the NE (50 degrees) at 17 MPH (15 knots; 7.7 m/s)
Visibility: 6 or more miles (10+ km)
Ceiling: ceiling and visibility are OK
Clouds: unknown
Weather: no significant weather observed at this time

METAR text: LEPA 172000Z 06013KT CAVOK 16/11 Q1016 NOSIG
Conditions at: LEPA (PALMA DE MALLORC, ES) observed 2000 UTC 17 March 2019
Temperature: 16.0°C (61°F)
Dewpoint: 11.0°C (52°F) [RH = 72%]
Pressure (altimeter): 30.00 inches Hg (1016.0 mb)
Winds: from the ENE (60 degrees) at 15 MPH (13 knots; 6.7 m/s)
Visibility: 6 or more miles (10+ km)
Ceiling: ceiling and visibility are OK
Clouds: unknown
Weather: no significant weather observed at this time

METAR text: LEPA 171930Z 06011KT CAVOK 16/11 Q1015 NOSIG
Conditions at: LEPA (PALMA DE MALLORC, ES) observed 1930 UTC 17 March 2019
Temperature: 16.0°C (61°F)
Dewpoint: 11.0°C (52°F) [RH = 72%]
Pressure (altimeter): 29.97 inches Hg (1015.0 mb)
Winds: from the ENE (60 degrees) at 13 MPH (11 knots; 5.7 m/s)
Visibility: 6 or more miles (10+ km)
Ceiling: ceiling and visibility are OK
Clouds: unknown
Weather: no significant weather observed at this time

METAR text: LEPA 171900Z 06015KT CAVOK 16/12 Q1015 NOSIG
Conditions at: LEPA (PALMA DE MALLORC, ES) observed 1900 UTC 17 March 2019
Temperature: 16.0°C (61°F)
Dewpoint: 12.0°C (54°F) [RH = 77%]
Pressure (altimeter): 29.97 inches Hg (1015.0 mb)
Winds: from the ENE (60 degrees) at 17 MPH (15 knots; 7.7 m/s)
Visibility: 6 or more miles (10+ km)
Ceiling: ceiling and visibility are OK
Clouds: unknown
Weather: no significant weather observed at this time

METAR text: LEPA 171830Z 07014KT CAVOK 16/13 Q1015 NOSIG
Conditions at: LEPA (PALMA DE MALLORC, ES) observed 1830 UTC 17 March 2019
Temperature: 16.0°C (61°F)
Dewpoint: 13.0°C (55°F) [RH = 82%]
Pressure (altimeter): 29.97 inches Hg (1015.0 mb)
Winds: from the ENE (70 degrees) at 16 MPH (14 knots; 7.2 m/s)
Visibility: 6 or more miles (10+ km)
Ceiling: ceiling and visibility are OK
Clouds: unknown
Weather: no significant weather observed at this time

Forecast for: AMD
Text: TAF AMD LEPA 190607Z 1906/2006 03005KT 9999 FEW020 BKN040 TX14/1912Z TN04/1906Z
Forecast period: 0600 to 0700 UTC 19 March 2019
Forecast type: FROM: standard forecast or significant change
Winds: from the NNE (30 degrees) at 6 MPH (5 knots; 2.6 m/s)
Visibility: 6 or more miles 10+ km)
Ceiling: 4000 feet AGL
Clouds: few clouds at 2000 feet AGL
broken clouds at 4000 feet AGL
Weather: no significant weather forecast for this period
Text: PROB40
Forecast period: 0600 to 1400 UTC 19 March 2019
Forecast type: TEMPORARY: The following changes expected for less than half the time period
Visibility: 2.49 miles (4.01 km)
Ceiling: 1400 feet AGL
Clouds: broken clouds at 1400 feet AGL
scattered clouds at 2000 feet AGL
Weather: SHRA  (rain showers)
Text: TEMPO 1906/1914 4000 SHRA BKN014 SCT020TCU
Forecast period: 0600 to 1200 UTC 19 March 2019
Forecast type: TEMPORARY: The following changes expected for less than half the time period
Visibility: 2.49 miles (4.01 km)
Ceiling: 1400 feet AGL
Clouds: broken clouds at 1400 feet AGL
scattered clouds at 2000 feet AGL
Weather: TSRA  (rain associated with thunderstorm(s))
Text: PROB30
Forecast period: 0700 UTC 19 March 2019 to 0600 UTC 20 March 2019
Forecast type: BECOMING: Conditions expected to become as follows by 0900 UTC 19 March 2019
Winds: from the NNE (30 degrees) at 10 MPH (9 knots; 4.6 m/s)
Visibility: 6 or more miles 10+ km)
Ceiling: 4000 feet AGL
Clouds: few clouds at 2000 feet AGL
broken clouds at 4000 feet AGL
Weather: no significant weather forecast for this period
Text: TEMPO 1906/1912 4000 TSRA BKN014 SCT020CB
Forecast period: 2000 UTC 19 March 2019 to 0000 UTC 20 March 2019
Forecast type: TEMPORARY: The following changes expected for less than half the time period
Visibility: 2.49 miles (4.01 km)
Ceiling: at least 12,000 feet AGL
Clouds: few clouds at 2000 feet AGL
Weather: TSRA  (rain associated with thunderstorm(s))